• Join FlightAware (Why Join?)
  • Login
  • US Flag 
Rudolph Flight #1: Arrived! 
05:22PM EST


 

Airport Tracker/Info


-or-


 

Live Flight TrackerFlight Track Log ✈ SKW5456 ✈ 10-May-2013 ✈ KRDM - KSFO

Flight Track Log - Related Links

Times and Time Zones

All times are in EDT time to prevent confusion due to time zone crossing. See the SKW5456 flight status page for this flight to view local times or setup timezone preferences in your user account.

Time Position Orientation Groundspeed Altitude Reporting Facility
EDT Latitude Longitude Course Direction KTS MPH feet Rate Location/Type
08:35AM 44.2894 -121.1142 190° South 191 220 4,500  Level Seattle Center
08:36AM 44.3039 -121.1939 284° West 272 313 5,900 2,220 Climbing Seattle Center
08:37AM 43.6588 -121.3123 200° South  Level FlightAware Approximate
08:37AM 44.2539 -121.2992 236° Southwest 280 322 9,000  Level Seattle Center
08:38AM 43.5589 -121.3353 190° South  Level FlightAware Approximate
08:38AM 44.1775 -121.3197 191° South 282 325 11,200  Level Seattle Center
08:39AM 43.4591 -121.3602 190° South  Level FlightAware Approximate
08:39AM 44.0933 -121.3417 191° South 305 351 13,000  Level Seattle Center
08:40AM 43.3609 -121.3931 190° South  Level FlightAware Approximate
08:40AM 44.0050 -121.3625 190° South 320 368 14,900  Level Seattle Center
08:41AM 43.9128 -121.3847 190° South 331 381 16,800 1,560 Climbing Seattle Center
08:42AM 43.8194 -121.4058 189° South 338 389 18,100 1,260 Climbing Seattle Center
08:43AM 43.7208 -121.4311 190° South 352 405 19,400 1,320 Climbing Seattle Center
08:44AM 43.6208 -121.4536 189° South 362 417 20,800 1,140 Climbing Seattle Center
08:45AM 43.5214 -121.4753 189° South 361 415 21,800 960 Climbing Seattle Center
08:46AM 43.4158 -121.5000 190° South 379 436 22,800 960 Climbing Seattle Center
08:47AM 43.3097 -121.5275 191° South 387 445 23,800 1,020 Climbing Seattle Center
08:48AM 43.2011 -121.5525 190° South 392 451 24,900 900 Climbing Seattle Center
08:49AM 43.0925 -121.5767 189° South 394 453 25,700 780 Climbing Seattle Center
08:50AM 42.9811 -121.6019 189° South 402 463 26,500 780 Climbing Seattle Center
08:51AM 42.8703 -121.6281 190° South 406 467 27,300 720 Climbing Seattle Center
08:52AM 42.7572 -121.6533 189° South 411 473 28,000 600 Climbing Seattle Center
08:53AM 42.6431 -121.6803 190° South 414 476 28,600 720 Climbing Seattle Center
08:54AM 42.5281 -121.7061 189° South 417 480 29,500 660 Climbing Seattle Center
08:55AM 42.4139 -121.7317 189° South 415 478 30,000 540 Climbing Seattle Center
08:56AM 42.2986 -121.7575 189° South 417 480 30,600 480 Climbing Seattle Center
08:57AM 42.1808 -121.7844 190° South 422 486 31,000 180 Climbing Seattle Center
08:58AM 42.0589 -121.8114 189° South 429 494 31,000  Level Seattle Center
08:59AM 41.9581 -121.8339 189° South 442 509 31,000  Level Seattle Center
09:00AM 41.8336 -121.8619 190° South 447 514 31,000  Level Seattle Center
09:01AM 41.7064 -121.8889 189° South 457 526 31,000  Level Seattle Center
09:02AM 41.5803 -121.9175 190° South 456 525 31,000  Level Seattle Center
09:03AM 41.4550 -121.9450 189° South 456 525 31,000  Level Seattle Center
09:04AM 41.3297 -121.9731 190° South 456 525 31,000  Level Seattle Center
09:05AM 41.2069 -122.0086 192° South 453 521 31,000  Level Seattle Center
09:06AM 41.0719 -122.0481 192° South 447 514 31,000  Level Seattle Center
09:07AM 40.9517 -122.0814 192° South 444 511 31,000  Level Oakland Center
09:08AM 40.8306 -122.1156 192° South 445 512 31,000  Level Oakland Center
09:09AM 40.7103 -122.1503 192° South 443 510 31,000  Level Oakland Center
09:10AM 40.5886 -122.1842 192° South 445 512 31,000  Level Oakland Center
09:11AM 40.4683 -122.2194 193° South 445 512 31,000  Level Oakland Center
09:12AM 40.3478 -122.2522 192° South 445 512 31,000  Level Oakland Center
09:13AM 40.2278 -122.2869 192° South 444 511 31,000  Level Oakland Center
09:14AM 40.0911 -122.3250 192° South 451 519 31,000  Level Oakland Center
09:15AM 39.9694 -122.3589 192° South 449 517 31,000  Level Oakland Center
09:16AM 39.8478 -122.3925 192° South 446 513 31,000  Level Oakland Center
09:17AM 39.7258 -122.4264 192° South 448 516 31,000  Level Oakland Center
09:18AM 39.6039 -122.4594 192° South 447 514 31,000  Level Oakland Center
09:19AM 39.4758 -122.4956 192° South 453 521 31,000  Level Oakland Center
09:20AM 39.3533 -122.5281 192° South 451 519 31,000  Level Oakland Center
09:21AM 39.2342 -122.5606 192° South 454 522 31,000  Level Oakland Center
09:22AM 39.1053 -122.5947 192° South 454 522 31,000  Level Oakland Center
09:23AM 38.9808 -122.6292 192° South 458 527 31,000 -600 Level Oakland Center
09:24AM 38.8639 -122.6592 191° South 461 531 29,900 -1,740 Descending Oakland Center
09:25AM 38.7294 -122.6956 192° South 490 564 27,500 -2,580 Descending Oakland Center
09:26AM 38.6050 -122.7292 192° South 460 529 24,700 -2,700 Descending Oakland Center
09:27AM 38.4889 -122.7611 192° South 429 494 22,100 -2,640 Descending Oakland Center
09:28AM 38.3742 -122.7908 191° South 422 486 19,400 -2,520 Descending Oakland Center
09:29AM 38.2614 -122.7739 173° South 409 471 17,100 -2,400 Descending Oakland Center
09:30AM 38.1497 -122.7433 168° South 409 471 14,600 -2,700 Descending Oakland Center
09:31AM 38.0236 -122.7072 167° South 391 450 11,700 -1,860 Descending Oakland Center
09:32AM 37.9281 -122.6814 168° South 366 421 10,900 -420 Descending Oakland Center
09:33AM 37.8494 -122.6200 148° Southeast 357 411 10,900 60 Level Oakland Center
09:33AM 37.8167 -122.5833 139° Southeast 341 392 11,000 60 Climbing Northern Cal TRACON
09:34AM 37.7500 -122.5167 142° Southeast 337 388 11,000  Level Northern Cal TRACON
09:35AM 37.6833 -122.4333 135° Southeast 317 365 11,000  Level Northern Cal TRACON
09:36AM 37.6167 -122.3833 149° Southeast 250 288 11,000 -60 Level Northern Cal TRACON
09:37AM 37.5928 -122.3533 135° Southeast 247 284 10,900 -1,200 Descending Oakland Center
09:38AM 37.5186 -122.3089 155° Southeast 246 283 9,000 -2,040 Descending Oakland Center
09:39AM 37.4606 -122.2742 155° Southeast 232 267 6,900 -2,220 Descending Oakland Center
09:40AM 37.4275 -122.2028 120° Southeast 241 277 4,500 -1,500 Descending Oakland Center
09:41AM 37.4514 -122.1431 63° Northeast 232 267 3,900 -660 Descending Oakland Center
09:42AM 37.5064 -122.1286 12° North 237 273 3,200 -600 Descending Oakland Center
09:43AM 37.5372 -122.1764 309° West 199 229 2,700 -480 Descending Oakland Center
09:44AM 37.5592 -122.2286 298° West 179 206 2,300 -420 Descending Oakland Center